D/T METAR WX W/DIR W/SPE G/SPE TEMP DEWP
23/05/19 14:20 EGLC 231320Z AUTO 20008KT 130V280 9999 NCD 23/07 Q1015 SSW (200°) 9.2mph 23°C 7°C
23/05/19 13:50 EGLC 231250Z AUTO 22007KT 130V270 9999 NCD 23/08 Q1015 SW (220°) 8.1mph 23°C 8°C
23/05/19 13:20 EGLC 231220Z AUTO 23006KT 160V290 9999 NCD 23/08 Q1015 SW (230°) 6.9mph 23°C 8°C
23/05/19 12:50 EGLC 231150Z AUTO 21009G20KT 160V270 9999 NCD 22/08 Q1016 SSW (210°) 10.4mph 23.0mph 22°C 8°C
23/05/19 12:20 EGLC 231120Z AUTO VRB05KT 9999 NCD 22/07 Q1016 N (0°) 5.8mph 22°C 7°C
23/05/19 11:50 EGLC 231050Z AUTO 28006KT 230V310 9999 NCD 21/06 Q1016 W (280°) 6.9mph 21°C 6°C
23/05/19 11:20 EGLC 231020Z AUTO VRB04KT 9999 NCD 20/06 Q1017 N (0°) 4.6mph 20°C 6°C
23/05/19 10:50 EGLC 230950Z AUTO 28006KT 220V300 9999 NCD 20/06 Q1017 W (280°) 6.9mph 20°C 6°C
23/05/19 10:20 EGLC 230920Z AUTO 24005KT 190V330 9999 NCD 19/06 Q1017 WSW (240°) 5.8mph 19°C 6°C
23/05/19 09:50 EGLC 230850Z AUTO 25007KT 200V280 9999 NCD 18/07 Q1017 WSW (250°) 8.1mph 18°C 7°C
23/05/19 09:20 EGLC 230820Z AUTO 25006KT 200V310 9999 NCD 17/07 Q1017 WSW (250°) 6.9mph 17°C 7°C
23/05/19 08:20 EGLC 230720Z AUTO 25006KT 9999 NCD 15/06 Q1018 WSW (250°) 6.9mph 15°C 6°C
23/05/19 07:50 EGLC 230650Z AUTO 25007KT 9999 NCD 15/07 Q1018 WSW (250°) 8.1mph 15°C 7°C
23/05/19 07:20 EGLC 230620Z AUTO 25007KT 9999 NCD 14/06 Q1018 WSW (250°) 8.1mph 14°C 6°C
23/05/19 06:50 EGLC 230550Z AUTO 24007KT 9999 NCD 13/06 Q1018 WSW (240°) 8.1mph 13°C 6°C
23/05/19 06:20 EGLC 230520Z AUTO 23008KT 9999 NCD 13/06 Q1017 SW (230°) 9.2mph 13°C 6°C
23/05/19 05:50 EGLC 230450Z AUTO 23007KT 9999 NCD 12/06 Q1017 SW (230°) 8.1mph 12°C 6°C
23/05/19 05:20 EGLC 230420Z AUTO 23005KT 9999 NCD 12/06 Q1017 SW (230°) 5.8mph 12°C 6°C
23/05/19 04:50 EGLC 230350Z AUTO 23007KT 9999 NCD 12/06 Q1017 SW (230°) 8.1mph 12°C 6°C
23/05/19 04:20 EGLC 230320Z AUTO 23006KT 9999 NCD 12/06 Q1017 SW (230°) 6.9mph 12°C 6°C
23/05/19 03:50 EGLC 230250Z AUTO 23006KT 9999 NCD 12/06 Q1017 SW (230°) 6.9mph 12°C 6°C
23/05/19 02:50 EGLC 230150Z AUTO 24006KT 9999 NCD 13/06 Q1018 WSW (240°) 6.9mph 13°C 6°C
23/05/19 02:20 EGLC 230120Z AUTO 24007KT 9999 NCD 13/06 Q1018 WSW (240°) 8.1mph 13°C 6°C
23/05/19 01:20 EGLC 230020Z AUTO 23005KT 9999 NCD 14/06 Q1018 SW (230°) 5.8mph 14°C 6°C
23/05/19 00:50 EGLC 222350Z AUTO 23006KT 9999 NCD 14/06 Q1018 SW (230°) 6.9mph 14°C 6°C
23/05/19 00:20 EGLC 222320Z AUTO 23007KT 9999 NCD 15/07 Q1018 SW (230°) 8.1mph 15°C 7°C
22/05/19 23:50 EGLC 222250Z AUTO 23007KT 9999 NCD 15/07 Q1018 SW (230°) 8.1mph 15°C 7°C
22/05/19 23:20 EGLC 222220Z AUTO 23007KT 9999 NCD 16/06 Q1018 SW (230°) 8.1mph 16°C 6°C
22/05/19 22:20 EGLC 222120Z AUTO 22005KT 190V250 9999 NCD 17/05 Q1018 SW (220°) 5.8mph 17°C 5°C
22/05/19 21:50 EGLC 222050Z AUTO 21008KT 190V250 9999 NCD 17/05 Q1018 SSW (210°) 9.2mph 17°C 5°C
22/05/19 21:20 EGLC 222020Z AUTO 21009KT 180V240 9999 NCD 18/05 Q1018 SSW (210°) 10.4mph 18°C 5°C
22/05/19 20:50 EGLC 221950Z AUTO 21010KT 170V230 9999 NCD 19/06 Q1018 SSW (210°) 11.5mph 19°C 6°C
22/05/19 20:20 EGLC 221920Z AUTO 20010KT 170V260 9999 NCD 19/06 Q1018 SSW (200°) 11.5mph 19°C 6°C
22/05/19 19:50 EGLC 221850Z AUTO 20010G22KT 160V260 9999 NCD 20/06 Q1018 SSW (200°) 11.5mph 25.3mph 20°C 6°C
22/05/19 19:20 EGLC 221820Z AUTO 20009KT 110V260 9999 NCD 20/06 Q1018 SSW (200°) 10.4mph 20°C 6°C
22/05/19 18:50 EGLC 221750Z AUTO 22009G19KT 170V250 9999 NCD 21/06 Q1018 SW (220°) 10.4mph 21.9mph 21°C 6°C
22/05/19 18:20 EGLC 221720Z AUTO 23010KT 200V270 9999 NCD 20/05 Q1018 SW (230°) 11.5mph 20°C 5°C
22/05/19 17:50 EGLC 221650Z AUTO 23010KT 190V260 9999 NCD 21/05 Q1018 SW (230°) 11.5mph 21°C 5°C
22/05/19 17:20 EGLC 221620Z AUTO 23008KT 170V260 9999 NCD 21/05 Q1018 SW (230°) 9.2mph 21°C 5°C
22/05/19 16:50 EGLC 221550Z AUTO 21007KT 170V250 9999 NCD 21/05 Q1018 SSW (210°) 8.1mph 21°C 5°C
22/05/19 16:20 EGLC 221520Z AUTO 19009KT 140V240 9999 NCD 21/05 Q1019 S (190°) 10.4mph 21°C 5°C
22/05/19 15:50 EGLC 221450Z AUTO 23008KT 160V300 9999 NCD 21/05 Q1019 SW (230°) 9.2mph 21°C 5°C
22/05/19 15:20 EGLC 221420Z AUTO 23005KT 190V260 9999 NCD 20/05 Q1019 SW (230°) 5.8mph 20°C 5°C
22/05/19 14:50 EGLC 221350Z AUTO 22009KT 190V260 9999 NCD 21/04 Q1019 SW (220°) 10.4mph 21°C 4°C
22/05/19 14:20 EGLC 221320Z AUTO 24008KT 180V280 9999 NCD 20/05 Q1019 WSW (240°) 9.2mph 20°C 5°C
22/05/19 13:50 EGLC 221250Z AUTO 21008KT 170V270 9999 NCD 20/05 Q1019 SSW (210°) 9.2mph 20°C 5°C
22/05/19 13:20 EGLC 221220Z AUTO 25008KT 210V270 9999 NCD 20/05 Q1020 WSW (250°) 9.2mph 20°C 5°C
22/05/19 12:50 EGLC 221150Z AUTO 22006KT 170V270 9999 NCD 20/05 Q1020 SW (220°) 6.9mph 20°C 5°C